Météo aviation pour un terrain ou une ville
Choisir un ou une

Vous pouvez entrer RAPIDEMENT les premières lettres pour sélectionner

Aéroport choisi : LFCK - CASTRES - MAZAMET
Visibilité




Soleil : Lever à 06:57 Coucher à 18:59
Date et heure locale 20/03/2019 00:37
Il fait nuit
Distance Terre - Lune
359400 kms

Phase actuelle: Pleine lune
Température
Pression
Humidité
Force du vent
Direction du vent
Temps présent
Ciel Clair

Ensoleillement : 100 %
Heure d'observation : 2019/03/20 00:30. Soit il y a 0 H 7 mn
Décodage METAR, TAF et désign par Philippe Guiraud
METAR : 2019/03/19 23:30 LFCK 192330Z AUTO VRB02KT CAVOK 03/02 Q1030
Prévisions (décodage des TAF)